sensor_id;sensor_type;location;lat;lon;timestamp;P1;durP1;ratioP1;P2;durP2;ratioP2
32130;SDS011;18639;50.716;7.086;2023-08-21T00:00:59;10.65;;;5.57;;
32130;SDS011;18639;50.716;7.086;2023-08-21T00:03:25;10.07;;;5.35;;
32130;SDS011;18639;50.716;7.086;2023-08-21T00:05:50;10.70;;;6.00;;
32130;SDS011;18639;50.716;7.086;2023-08-21T00:08:15;11.13;;;6.15;;
32130;SDS011;18639;50.716;7.086;2023-08-21T00:10:41;10.43;;;5.80;;
32130;SDS011;18639;50.716;7.086;2023-08-21T00:13:06;10.85;;;5.88;;
32130;SDS011;18639;50.716;7.086;2023-08-21T00:15:32;11.45;;;5.60;;
32130;SDS011;18639;50.716;7.086;2023-08-21T00:17:57;9.82;;;5.30;;
32130;SDS011;18639;50.716;7.086;2023-08-21T00:20:23;10.00;;;5.15;;
32130;SDS011;18639;50.716;7.086;2023-08-21T00:22:49;10.80;;;5.57;;
32130;SDS011;18639;50.716;7.086;2023-08-21T00:25:14;9.55;;;5.45;;
32130;SDS011;18639;50.716;7.086;2023-08-21T00:27:39;8.52;;;4.60;;
32130;SDS011;18639;50.716;7.086;2023-08-21T00:30:05;10.98;;;5.13;;
32130;SDS011;18639;50.716;7.086;2023-08-21T00:32:30;8.32;;;4.45;;
32130;SDS011;18639;50.716;7.086;2023-08-21T00:34:56;9.23;;;5.10;;
32130;SDS011;18639;50.716;7.086;2023-08-21T00:37:21;8.80;;;5.18;;
32130;SDS011;18639;50.716;7.086;2023-08-21T00:39:46;8.40;;;5.05;;
32130;SDS011;18639;50.716;7.086;2023-08-21T00:42:11;9.30;;;5.25;;
32130;SDS011;18639;50.716;7.086;2023-08-21T00:44:37;12.50;;;5.40;;
32130;SDS011;18639;50.716;7.086;2023-08-21T00:47:02;10.48;;;5.25;;
32130;SDS011;18639;50.716;7.086;2023-08-21T00:49:27;10.15;;;5.20;;
32130;SDS011;18639;50.716;7.086;2023-08-21T00:51:54;8.88;;;4.88;;
32130;SDS011;18639;50.716;7.086;2023-08-21T00:54:19;9.70;;;4.88;;
32130;SDS011;18639;50.716;7.086;2023-08-21T00:56:45;9.32;;;4.88;;
32130;SDS011;18639;50.716;7.086;2023-08-21T00:59:10;13.48;;;6.70;;
32130;SDS011;18639;50.716;7.086;2023-08-21T01:01:36;9.93;;;5.95;;
32130;SDS011;18639;50.716;7.086;2023-08-21T01:04:02;9.60;;;5.38;;
32130;SDS011;18639;50.716;7.086;2023-08-21T01:06:28;11.50;;;5.35;;
32130;SDS011;18639;50.716;7.086;2023-08-21T01:09:04;12.30;;;5.13;;
32130;SDS011;18639;50.716;7.086;2023-08-21T01:17:14;9.35;;;4.95;;
32130;SDS011;18639;50.716;7.086;2023-08-21T01:19:43;9.10;;;4.70;;
32130;SDS011;18639;50.716;7.086;2023-08-21T01:22:11;9.95;;;5.43;;
32130;SDS011;18639;50.716;7.086;2023-08-21T01:24:36;10.98;;;5.13;;
32130;SDS011;18639;50.716;7.086;2023-08-21T01:27:02;10.98;;;4.78;;
32130;SDS011;18639;50.716;7.086;2023-08-21T01:29:27;8.77;;;4.82;;
32130;SDS011;18639;50.716;7.086;2023-08-21T01:34:40;9.65;;;5.03;;
32130;SDS011;18639;50.716;7.086;2023-08-21T01:37:07;10.43;;;5.05;;
32130;SDS011;18639;50.716;7.086;2023-08-21T01:39:33;9.68;;;4.90;;
32130;SDS011;18639;50.716;7.086;2023-08-21T01:41:58;9.13;;;5.03;;
32130;SDS011;18639;50.716;7.086;2023-08-21T01:44:24;7.60;;;4.43;;
32130;SDS011;18639;50.716;7.086;2023-08-21T01:46:49;8.32;;;5.05;;
32130;SDS011;18639;50.716;7.086;2023-08-21T01:49:15;8.43;;;4.60;;
32130;SDS011;18639;50.716;7.086;2023-08-21T01:51:40;8.18;;;4.78;;
32130;SDS011;18639;50.716;7.086;2023-08-21T01:54:05;9.00;;;4.88;;
32130;SDS011;18639;50.716;7.086;2023-08-21T01:56:30;8.90;;;4.93;;
32130;SDS011;18639;50.716;7.086;2023-08-21T01:58:56;9.57;;;5.00;;
32130;SDS011;18639;50.716;7.086;2023-08-21T02:01:21;9.25;;;4.93;;
32130;SDS011;18639;50.716;7.086;2023-08-21T02:03:46;9.40;;;4.80;;
32130;SDS011;18639;50.716;7.086;2023-08-21T02:06:12;7.57;;;4.55;;
32130;SDS011;18639;50.716;7.086;2023-08-21T02:08:37;9.77;;;5.00;;
32130;SDS011;18639;50.716;7.086;2023-08-21T02:11:02;8.65;;;5.03;;
32130;SDS011;18639;50.716;7.086;2023-08-21T02:13:28;9.13;;;4.72;;
32130;SDS011;18639;50.716;7.086;2023-08-21T02:15:53;9.32;;;5.00;;
32130;SDS011;18639;50.716;7.086;2023-08-21T02:18:18;8.73;;;5.10;;
32130;SDS011;18639;50.716;7.086;2023-08-21T02:20:44;10.13;;;5.00;;
32130;SDS011;18639;50.716;7.086;2023-08-21T02:23:09;8.63;;;4.88;;
32130;SDS011;18639;50.716;7.086;2023-08-21T02:25:34;10.35;;;4.95;;
32130;SDS011;18639;50.716;7.086;2023-08-21T02:28:00;9.23;;;5.10;;
32130;SDS011;18639;50.716;7.086;2023-08-21T02:30:27;7.75;;;4.82;;
32130;SDS011;18639;50.716;7.086;2023-08-21T02:32:53;9.68;;;4.90;;
32130;SDS011;18639;50.716;7.086;2023-08-21T02:35:19;10.55;;;5.80;;
32130;SDS011;18639;50.716;7.086;2023-08-21T02:37:45;8.40;;;4.75;;
32130;SDS011;18639;50.716;7.086;2023-08-21T02:40:11;8.25;;;4.85;;
32130;SDS011;18639;50.716;7.086;2023-08-21T02:42:36;11.23;;;4.57;;
32130;SDS011;18639;50.716;7.086;2023-08-21T02:45:02;10.40;;;5.20;;
32130;SDS011;18639;50.716;7.086;2023-08-21T02:47:32;12.10;;;5.72;;
32130;SDS011;18639;50.716;7.086;2023-08-21T02:49:59;10.18;;;5.55;;
32130;SDS011;18639;50.716;7.086;2023-08-21T02:52:24;7.13;;;4.45;;
32130;SDS011;18639;50.716;7.086;2023-08-21T02:54:50;9.80;;;4.68;;
32130;SDS011;18639;50.716;7.086;2023-08-21T02:57:15;9.32;;;4.60;;
32130;SDS011;18639;50.716;7.086;2023-08-21T02:59:40;10.60;;;5.70;;
32130;SDS011;18639;50.716;7.086;2023-08-21T03:02:06;9.07;;;4.88;;
32130;SDS011;18639;50.716;7.086;2023-08-21T03:04:31;9.02;;;4.90;;
32130;SDS011;18639;50.716;7.086;2023-08-21T03:06:56;9.43;;;4.85;;
32130;SDS011;18639;50.716;7.086;2023-08-21T03:09:21;7.18;;;4.68;;
32130;SDS011;18639;50.716;7.086;2023-08-21T03:11:47;7.95;;;4.60;;
32130;SDS011;18639;50.716;7.086;2023-08-21T03:14:12;10.48;;;5.30;;
32130;SDS011;18639;50.716;7.086;2023-08-21T03:16:37;9.40;;;4.80;;
32130;SDS011;18639;50.716;7.086;2023-08-21T03:19:02;8.50;;;5.05;;
32130;SDS011;18639;50.716;7.086;2023-08-21T03:21:28;8.70;;;4.93;;
32130;SDS011;18639;50.716;7.086;2023-08-21T03:23:55;9.15;;;5.00;;
32130;SDS011;18639;50.716;7.086;2023-08-21T03:26:22;8.05;;;4.30;;
32130;SDS011;18639;50.716;7.086;2023-08-21T03:28:48;8.77;;;4.55;;
32130;SDS011;18639;50.716;7.086;2023-08-21T03:31:14;10.15;;;4.90;;
32130;SDS011;18639;50.716;7.086;2023-08-21T03:33:39;10.52;;;5.07;;
32130;SDS011;18639;50.716;7.086;2023-08-21T03:36:04;9.77;;;5.00;;
32130;SDS011;18639;50.716;7.086;2023-08-21T03:38:31;8.32;;;4.68;;
32130;SDS011;18639;50.716;7.086;2023-08-21T03:40:56;8.85;;;5.30;;
32130;SDS011;18639;50.716;7.086;2023-08-21T03:43:22;8.40;;;5.30;;
32130;SDS011;18639;50.716;7.086;2023-08-21T03:45:47;9.23;;;4.88;;
32130;SDS011;18639;50.716;7.086;2023-08-21T03:48:12;9.55;;;5.10;;
32130;SDS011;18639;50.716;7.086;2023-08-21T03:50:38;9.80;;;4.88;;
32130;SDS011;18639;50.716;7.086;2023-08-21T03:53:03;9.63;;;5.10;;
32130;SDS011;18639;50.716;7.086;2023-08-21T03:55:29;9.63;;;5.30;;
32130;SDS011;18639;50.716;7.086;2023-08-21T03:57:54;9.32;;;4.88;;
32130;SDS011;18639;50.716;7.086;2023-08-21T04:00:19;9.20;;;5.10;;
32130;SDS011;18639;50.716;7.086;2023-08-21T04:02:45;8.95;;;5.35;;
32130;SDS011;18639;50.716;7.086;2023-08-21T04:05:10;11.63;;;4.90;;
32130;SDS011;18639;50.716;7.086;2023-08-21T04:07:36;9.50;;;4.95;;
32130;SDS011;18639;50.716;7.086;2023-08-21T04:10:02;9.93;;;4.88;;
32130;SDS011;18639;50.716;7.086;2023-08-21T04:12:27;9.95;;;5.57;;
32130;SDS011;18639;50.716;7.086;2023-08-21T04:14:52;8.65;;;4.65;;
32130;SDS011;18639;50.716;7.086;2023-08-21T04:17:21;9.63;;;4.95;;
32130;SDS011;18639;50.716;7.086;2023-08-21T04:19:47;11.18;;;5.35;;
32130;SDS011;18639;50.716;7.086;2023-08-21T04:22:12;9.82;;;5.03;;
32130;SDS011;18639;50.716;7.086;2023-08-21T04:24:38;9.35;;;5.05;;
32130;SDS011;18639;50.716;7.086;2023-08-21T04:27:04;8.55;;;4.93;;
32130;SDS011;18639;50.716;7.086;2023-08-21T04:29:29;10.52;;;5.18;;
32130;SDS011;18639;50.716;7.086;2023-08-21T04:31:54;10.27;;;5.30;;
32130;SDS011;18639;50.716;7.086;2023-08-21T04:34:19;8.68;;;5.25;;
32130;SDS011;18639;50.716;7.086;2023-08-21T04:36:45;9.77;;;5.40;;
32130;SDS011;18639;50.716;7.086;2023-08-21T04:39:10;10.48;;;4.82;;
32130;SDS011;18639;50.716;7.086;2023-08-21T04:41:35;8.02;;;4.88;;
32130;SDS011;18639;50.716;7.086;2023-08-21T04:44:01;11.60;;;5.10;;
32130;SDS011;18639;50.716;7.086;2023-08-21T04:46:28;11.05;;;5.22;;
32130;SDS011;18639;50.716;7.086;2023-08-21T04:48:53;9.95;;;5.22;;
32130;SDS011;18639;50.716;7.086;2023-08-21T04:51:18;10.93;;;5.45;;
32130;SDS011;18639;50.716;7.086;2023-08-21T04:53:45;9.70;;;5.13;;
32130;SDS011;18639;50.716;7.086;2023-08-21T04:56:10;10.85;;;5.18;;
32130;SDS011;18639;50.716;7.086;2023-08-21T04:58:35;10.35;;;5.20;;
32130;SDS011;18639;50.716;7.086;2023-08-21T05:01:01;15.25;;;5.38;;
32130;SDS011;18639;50.716;7.086;2023-08-21T05:03:26;9.00;;;5.15;;
32130;SDS011;18639;50.716;7.086;2023-08-21T05:05:52;12.52;;;5.40;;
32130;SDS011;18639;50.716;7.086;2023-08-21T05:08:19;8.77;;;5.15;;
32130;SDS011;18639;50.716;7.086;2023-08-21T05:10:45;11.63;;;6.05;;
32130;SDS011;18639;50.716;7.086;2023-08-21T05:13:11;10.55;;;5.53;;
32130;SDS011;18639;50.716;7.086;2023-08-21T05:15:36;12.82;;;5.43;;
32130;SDS011;18639;50.716;7.086;2023-08-21T05:18:01;8.98;;;5.28;;
32130;SDS011;18639;50.716;7.086;2023-08-21T05:20:26;10.35;;;5.38;;
32130;SDS011;18639;50.716;7.086;2023-08-21T05:22:52;9.93;;;5.60;;
32130;SDS011;18639;50.716;7.086;2023-08-21T05:25:17;11.63;;;5.25;;
32130;SDS011;18639;50.716;7.086;2023-08-21T05:27:42;10.57;;;5.03;;
32130;SDS011;18639;50.716;7.086;2023-08-21T05:30:08;8.75;;;5.00;;
32130;SDS011;18639;50.716;7.086;2023-08-21T05:32:35;10.50;;;5.20;;
32130;SDS011;18639;50.716;7.086;2023-08-21T05:35:00;8.63;;;5.03;;
32130;SDS011;18639;50.716;7.086;2023-08-21T05:37:26;7.35;;;4.60;;
32130;SDS011;18639;50.716;7.086;2023-08-21T05:39:51;10.10;;;5.20;;
32130;SDS011;18639;50.716;7.086;2023-08-21T05:42:17;12.80;;;5.45;;
32130;SDS011;18639;50.716;7.086;2023-08-21T05:44:42;9.48;;;5.13;;
32130;SDS011;18639;50.716;7.086;2023-08-21T05:47:08;11.10;;;5.70;;
32130;SDS011;18639;50.716;7.086;2023-08-21T05:49:33;11.48;;;5.18;;
32130;SDS011;18639;50.716;7.086;2023-08-21T05:51:58;11.85;;;5.22;;
32130;SDS011;18639;50.716;7.086;2023-08-21T05:54:24;9.70;;;5.53;;
32130;SDS011;18639;50.716;7.086;2023-08-21T05:56:50;10.95;;;5.38;;
32130;SDS011;18639;50.716;7.086;2023-08-21T05:59:25;10.20;;;5.22;;
32130;SDS011;18639;50.716;7.086;2023-08-21T06:01:53;11.15;;;5.40;;
32130;SDS011;18639;50.716;7.086;2023-08-21T06:04:19;11.13;;;6.07;;
32130;SDS011;18639;50.716;7.086;2023-08-21T06:06:44;10.05;;;5.65;;
32130;SDS011;18639;50.716;7.086;2023-08-21T06:09:09;11.43;;;5.82;;
32130;SDS011;18639;50.716;7.086;2023-08-21T06:11:34;9.85;;;5.45;;
32130;SDS011;18639;50.716;7.086;2023-08-21T06:14:00;10.35;;;5.20;;
32130;SDS011;18639;50.716;7.086;2023-08-21T06:16:25;9.75;;;5.68;;
32130;SDS011;18639;50.716;7.086;2023-08-21T06:18:50;10.05;;;5.68;;
32130;SDS011;18639;50.716;7.086;2023-08-21T06:21:15;9.50;;;5.05;;
32130;SDS011;18639;50.716;7.086;2023-08-21T06:23:41;11.05;;;5.35;;
32130;SDS011;18639;50.716;7.086;2023-08-21T06:26:06;9.98;;;5.60;;
32130;SDS011;18639;50.716;7.086;2023-08-21T06:28:31;9.48;;;4.97;;
32130;SDS011;18639;50.716;7.086;2023-08-21T06:30:57;9.77;;;5.30;;
32130;SDS011;18639;50.716;7.086;2023-08-21T06:33:28;9.10;;;5.50;;
32130;SDS011;18639;50.716;7.086;2023-08-21T06:35:53;10.10;;;5.43;;
32130;SDS011;18639;50.716;7.086;2023-08-21T06:38:18;12.00;;;5.22;;
32130;SDS011;18639;50.716;7.086;2023-08-21T06:40:44;10.77;;;5.50;;
32130;SDS011;18639;50.716;7.086;2023-08-21T06:43:11;10.25;;;4.90;;
32130;SDS011;18639;50.716;7.086;2023-08-21T06:45:36;11.68;;;5.00;;
32130;SDS011;18639;50.716;7.086;2023-08-21T06:48:02;10.80;;;5.25;;
32130;SDS011;18639;50.716;7.086;2023-08-21T06:50:27;10.95;;;5.50;;
32130;SDS011;18639;50.716;7.086;2023-08-21T06:52:53;11.13;;;5.18;;
32130;SDS011;18639;50.716;7.086;2023-08-21T06:55:18;11.13;;;5.50;;
32130;SDS011;18639;50.716;7.086;2023-08-21T06:57:43;9.95;;;5.25;;
32130;SDS011;18639;50.716;7.086;2023-08-21T07:00:09;9.00;;;5.15;;
32130;SDS011;18639;50.716;7.086;2023-08-21T07:02:34;9.82;;;5.20;;
32130;SDS011;18639;50.716;7.086;2023-08-21T07:05:00;9.02;;;5.25;;
32130;SDS011;18639;50.716;7.086;2023-08-21T07:07:25;10.43;;;5.18;;
32130;SDS011;18639;50.716;7.086;2023-08-21T07:09:50;10.15;;;5.63;;
32130;SDS011;18639;50.716;7.086;2023-08-21T07:12:16;9.50;;;5.30;;
32130;SDS011;18639;50.716;7.086;2023-08-21T07:14:41;15.23;;;6.50;;
32130;SDS011;18639;50.716;7.086;2023-08-21T07:17:06;8.82;;;5.00;;
32130;SDS011;18639;50.716;7.086;2023-08-21T07:19:32;8.07;;;4.90;;
32130;SDS011;18639;50.716;7.086;2023-08-21T07:21:57;14.73;;;5.32;;
32130;SDS011;18639;50.716;7.086;2023-08-21T07:24:22;9.00;;;4.78;;
32130;SDS011;18639;50.716;7.086;2023-08-21T07:26:47;9.60;;;5.75;;
32130;SDS011;18639;50.716;7.086;2023-08-21T07:29:13;8.05;;;4.80;;
32130;SDS011;18639;50.716;7.086;2023-08-21T07:31:38;11.85;;;5.40;;
32130;SDS011;18639;50.716;7.086;2023-08-21T07:34:03;9.98;;;5.05;;
32130;SDS011;18639;50.716;7.086;2023-08-21T07:36:29;8.07;;;4.93;;
32130;SDS011;18639;50.716;7.086;2023-08-21T07:38:56;11.80;;;4.93;;
32130;SDS011;18639;50.716;7.086;2023-08-21T07:41:21;9.15;;;5.15;;
32130;SDS011;18639;50.716;7.086;2023-08-21T07:43:46;11.30;;;5.22;;
32130;SDS011;18639;50.716;7.086;2023-08-21T07:46:12;9.60;;;4.75;;
32130;SDS011;18639;50.716;7.086;2023-08-21T07:48:41;10.82;;;5.38;;
32130;SDS011;18639;50.716;7.086;2023-08-21T07:51:07;8.13;;;4.75;;
32130;SDS011;18639;50.716;7.086;2023-08-21T07:53:33;8.88;;;4.90;;
32130;SDS011;18639;50.716;7.086;2023-08-21T07:55:59;9.68;;;5.03;;
32130;SDS011;18639;50.716;7.086;2023-08-21T07:58:25;9.68;;;5.20;;
32130;SDS011;18639;50.716;7.086;2023-08-21T08:00:50;10.20;;;5.10;;
32130;SDS011;18639;50.716;7.086;2023-08-21T08:03:16;7.35;;;4.53;;
32130;SDS011;18639;50.716;7.086;2023-08-21T08:05:42;7.95;;;4.90;;
32130;SDS011;18639;50.716;7.086;2023-08-21T08:08:08;8.75;;;4.60;;
32130;SDS011;18639;50.716;7.086;2023-08-21T08:10:36;7.35;;;4.50;;
32130;SDS011;18639;50.716;7.086;2023-08-21T08:13:06;9.32;;;5.20;;
32130;SDS011;18639;50.716;7.086;2023-08-21T08:15:32;7.40;;;4.78;;
32130;SDS011;18639;50.716;7.086;2023-08-21T08:17:59;8.63;;;4.57;;
32130;SDS011;18639;50.716;7.086;2023-08-21T08:20:25;11.27;;;4.88;;
32130;SDS011;18639;50.716;7.086;2023-08-21T08:22:50;8.02;;;4.47;;
32130;SDS011;18639;50.716;7.086;2023-08-21T08:25:15;6.57;;;3.75;;
32130;SDS011;18639;50.716;7.086;2023-08-21T08:27:41;8.27;;;4.22;;
32130;SDS011;18639;50.716;7.086;2023-08-21T08:30:07;10.00;;;4.75;;
32130;SDS011;18639;50.716;7.086;2023-08-21T08:32:33;7.60;;;4.72;;
32130;SDS011;18639;50.716;7.086;2023-08-21T08:34:58;9.38;;;5.00;;
32130;SDS011;18639;50.716;7.086;2023-08-21T08:37:24;7.38;;;4.63;;
32130;SDS011;18639;50.716;7.086;2023-08-21T08:39:49;8.15;;;4.38;;
32130;SDS011;18639;50.716;7.086;2023-08-21T08:42:15;7.88;;;4.47;;
32130;SDS011;18639;50.716;7.086;2023-08-21T08:44:41;7.45;;;3.97;;
32130;SDS011;18639;50.716;7.086;2023-08-21T08:47:08;5.93;;;3.95;;
32130;SDS011;18639;50.716;7.086;2023-08-21T08:49:35;7.20;;;4.03;;
32130;SDS011;18639;50.716;7.086;2023-08-21T08:52:00;8.15;;;4.22;;
32130;SDS011;18639;50.716;7.086;2023-08-21T08:54:26;5.75;;;3.78;;
32130;SDS011;18639;50.716;7.086;2023-08-21T08:56:52;7.00;;;3.97;;
32130;SDS011;18639;50.716;7.086;2023-08-21T08:59:18;9.55;;;4.45;;
32130;SDS011;18639;50.716;7.086;2023-08-21T09:01:43;10.25;;;4.47;;
32130;SDS011;18639;50.716;7.086;2023-08-21T09:04:09;7.43;;;4.15;;
32130;SDS011;18639;50.716;7.086;2023-08-21T09:06:35;7.63;;;4.00;;
32130;SDS011;18639;50.716;7.086;2023-08-21T09:09:00;7.18;;;4.15;;
32130;SDS011;18639;50.716;7.086;2023-08-21T09:11:26;6.50;;;4.43;;
32130;SDS011;18639;50.716;7.086;2023-08-21T09:13:52;7.93;;;4.40;;
32130;SDS011;18639;50.716;7.086;2023-08-21T09:16:19;7.22;;;4.05;;
32130;SDS011;18639;50.716;7.086;2023-08-21T09:18:48;5.53;;;3.58;;
32130;SDS011;18639;50.716;7.086;2023-08-21T09:21:15;7.75;;;4.60;;
32130;SDS011;18639;50.716;7.086;2023-08-21T09:23:44;7.32;;;4.07;;
32130;SDS011;18639;50.716;7.086;2023-08-21T09:26:11;6.63;;;3.80;;
32130;SDS011;18639;50.716;7.086;2023-08-21T09:28:46;7.40;;;3.97;;
32130;SDS011;18639;50.716;7.086;2023-08-21T09:31:12;7.10;;;4.15;;
32130;SDS011;18639;50.716;7.086;2023-08-21T09:33:38;7.80;;;4.15;;
32130;SDS011;18639;50.716;7.086;2023-08-21T09:36:03;7.53;;;3.85;;
32130;SDS011;18639;50.716;7.086;2023-08-21T09:38:33;6.13;;;4.20;;
32130;SDS011;18639;50.716;7.086;2023-08-21T09:41:00;7.40;;;3.97;;
32130;SDS011;18639;50.716;7.086;2023-08-21T09:43:26;6.95;;;3.70;;
32130;SDS011;18639;50.716;7.086;2023-08-21T09:45:52;7.35;;;4.53;;
32130;SDS011;18639;50.716;7.086;2023-08-21T09:48:23;8.85;;;4.10;;
32130;SDS011;18639;50.716;7.086;2023-08-21T09:50:51;7.28;;;4.00;;
32130;SDS011;18639;50.716;7.086;2023-08-21T09:53:17;7.97;;;4.20;;
32130;SDS011;18639;50.716;7.086;2023-08-21T09:55:42;9.40;;;4.82;;
32130;SDS011;18639;50.716;7.086;2023-08-21T09:58:09;7.13;;;3.90;;
32130;SDS011;18639;50.716;7.086;2023-08-21T10:00:35;6.90;;;4.03;;
32130;SDS011;18639;50.716;7.086;2023-08-21T10:03:03;8.70;;;4.05;;
32130;SDS011;18639;50.716;7.086;2023-08-21T10:05:31;6.95;;;3.90;;
32130;SDS011;18639;50.716;7.086;2023-08-21T10:07:59;8.85;;;4.90;;
32130;SDS011;18639;50.716;7.086;2023-08-21T10:10:29;9.30;;;4.32;;
32130;SDS011;18639;50.716;7.086;2023-08-21T10:12:56;8.13;;;4.47;;
32130;SDS011;18639;50.716;7.086;2023-08-21T10:15:21;11.30;;;4.68;;
32130;SDS011;18639;50.716;7.086;2023-08-21T10:17:47;8.02;;;4.50;;
32130;SDS011;18639;50.716;7.086;2023-08-21T10:20:12;8.35;;;5.20;;
32130;SDS011;18639;50.716;7.086;2023-08-21T10:22:45;6.90;;;4.60;;
32130;SDS011;18639;50.716;7.086;2023-08-21T10:25:19;7.00;;;4.57;;
32130;SDS011;18639;50.716;7.086;2023-08-21T10:27:51;8.38;;;4.68;;
32130;SDS011;18639;50.716;7.086;2023-08-21T10:30:21;9.23;;;4.18;;
32130;SDS011;18639;50.716;7.086;2023-08-21T10:32:51;7.28;;;4.25;;
32130;SDS011;18639;50.716;7.086;2023-08-21T10:35:21;6.55;;;4.10;;
32130;SDS011;18639;50.716;7.086;2023-08-21T10:38:05;9.13;;;4.35;;
32130;SDS011;18639;50.716;7.086;2023-08-21T10:40:38;8.15;;;4.40;;
32130;SDS011;18639;50.716;7.086;2023-08-21T10:43:04;8.63;;;4.32;;
32130;SDS011;18639;50.716;7.086;2023-08-21T10:45:30;6.38;;;3.85;;
32130;SDS011;18639;50.716;7.086;2023-08-21T10:47:59;7.40;;;3.85;;
32130;SDS011;18639;50.716;7.086;2023-08-21T10:50:25;8.93;;;3.92;;
32130;SDS011;18639;50.716;7.086;2023-08-21T10:52:51;9.45;;;4.25;;
32130;SDS011;18639;50.716;7.086;2023-08-21T10:55:18;7.07;;;4.22;;
32130;SDS011;18639;50.716;7.086;2023-08-21T10:57:48;7.18;;;3.95;;
32130;SDS011;18639;50.716;7.086;2023-08-21T11:00:16;7.10;;;4.18;;
32130;SDS011;18639;50.716;7.086;2023-08-21T11:02:44;7.07;;;4.15;;
32130;SDS011;18639;50.716;7.086;2023-08-21T11:05:12;7.05;;;4.13;;
32130;SDS011;18639;50.716;7.086;2023-08-21T11:07:48;7.53;;;3.85;;
32130;SDS011;18639;50.716;7.086;2023-08-21T11:10:17;6.60;;;3.85;;
32130;SDS011;18639;50.716;7.086;2023-08-21T11:12:56;7.32;;;3.60;;
32130;SDS011;18639;50.716;7.086;2023-08-21T11:15:27;7.55;;;3.80;;
32130;SDS011;18639;50.716;7.086;2023-08-21T11:23:05;9.45;;;4.20;;
32130;SDS011;18639;50.716;7.086;2023-08-21T11:25:34;8.05;;;3.40;;
32130;SDS011;18639;50.716;7.086;2023-08-21T11:28:02;6.75;;;4.20;;
32130;SDS011;18639;50.716;7.086;2023-08-21T11:30:28;7.68;;;3.83;;
32130;SDS011;18639;50.716;7.086;2023-08-21T11:35:32;8.10;;;3.67;;
32130;SDS011;18639;50.716;7.086;2023-08-21T11:37:57;5.68;;;3.63;;
32130;SDS011;18639;50.716;7.086;2023-08-21T11:40:22;6.88;;;3.70;;
32130;SDS011;18639;50.716;7.086;2023-08-21T11:42:48;9.35;;;4.10;;
32130;SDS011;18639;50.716;7.086;2023-08-21T11:45:16;7.22;;;4.00;;
32130;SDS011;18639;50.716;7.086;2023-08-21T11:47:45;7.40;;;3.63;;
32130;SDS011;18639;50.716;7.086;2023-08-21T11:50:11;5.15;;;3.42;;
32130;SDS011;18639;50.716;7.086;2023-08-21T11:52:38;6.97;;;3.72;;
32130;SDS011;18639;50.716;7.086;2023-08-21T11:55:06;6.15;;;3.25;;
32130;SDS011;18639;50.716;7.086;2023-08-21T11:57:50;5.22;;;3.42;;
32130;SDS011;18639;50.716;7.086;2023-08-21T12:00:17;7.22;;;3.85;;
32130;SDS011;18639;50.716;7.086;2023-08-21T12:02:53;6.03;;;3.50;;
32130;SDS011;18639;50.716;7.086;2023-08-21T12:05:22;7.10;;;3.33;;
32130;SDS011;18639;50.716;7.086;2023-08-21T12:07:48;6.88;;;3.30;;
32130;SDS011;18639;50.716;7.086;2023-08-21T12:10:13;6.85;;;3.70;;
32130;SDS011;18639;50.716;7.086;2023-08-21T12:12:38;6.90;;;3.22;;
32130;SDS011;18639;50.716;7.086;2023-08-21T12:15:04;6.85;;;3.67;;
32130;SDS011;18639;50.716;7.086;2023-08-21T12:17:30;6.38;;;3.45;;
32130;SDS011;18639;50.716;7.086;2023-08-21T12:19:56;8.15;;;4.10;;
32130;SDS011;18639;50.716;7.086;2023-08-21T12:22:21;6.00;;;3.38;;
32130;SDS011;18639;50.716;7.086;2023-08-21T12:24:46;7.00;;;3.60;;
32130;SDS011;18639;50.716;7.086;2023-08-21T12:27:11;6.20;;;3.28;;
32130;SDS011;18639;50.716;7.086;2023-08-21T12:29:37;8.90;;;3.85;;
32130;SDS011;18639;50.716;7.086;2023-08-21T12:32:02;6.97;;;3.10;;
32130;SDS011;18639;50.716;7.086;2023-08-21T12:34:28;7.35;;;3.75;;
32130;SDS011;18639;50.716;7.086;2023-08-21T12:36:53;6.55;;;3.28;;
32130;SDS011;18639;50.716;7.086;2023-08-21T12:39:19;7.47;;;3.67;;
32130;SDS011;18639;50.716;7.086;2023-08-21T12:41:44;5.68;;;3.03;;
32130;SDS011;18639;50.716;7.086;2023-08-21T12:44:11;5.65;;;3.50;;
32130;SDS011;18639;50.716;7.086;2023-08-21T12:46:37;4.38;;;2.67;;
32130;SDS011;18639;50.716;7.086;2023-08-21T12:49:03;7.57;;;3.70;;
32130;SDS011;18639;50.716;7.086;2023-08-21T12:51:29;13.70;;;3.90;;
32130;SDS011;18639;50.716;7.086;2023-08-21T12:53:54;5.78;;;3.22;;
32130;SDS011;18639;50.716;7.086;2023-08-21T12:56:20;6.93;;;3.72;;
32130;SDS011;18639;50.716;7.086;2023-08-21T12:58:45;5.93;;;3.13;;
32130;SDS011;18639;50.716;7.086;2023-08-21T13:01:11;7.93;;;3.30;;
32130;SDS011;18639;50.716;7.086;2023-08-21T13:03:37;4.75;;;3.22;;
32130;SDS011;18639;50.716;7.086;2023-08-21T13:06:03;6.55;;;3.10;;
32130;SDS011;18639;50.716;7.086;2023-08-21T13:08:29;7.30;;;3.25;;
32130;SDS011;18639;50.716;7.086;2023-08-21T13:10:56;5.20;;;3.08;;
32130;SDS011;18639;50.716;7.086;2023-08-21T13:13:22;5.88;;;3.25;;
32130;SDS011;18639;50.716;7.086;2023-08-21T13:15:47;4.95;;;3.05;;
32130;SDS011;18639;50.716;7.086;2023-08-21T13:18:12;4.78;;;2.95;;
32130;SDS011;18639;50.716;7.086;2023-08-21T13:20:40;6.47;;;3.05;;
32130;SDS011;18639;50.716;7.086;2023-08-21T13:23:06;5.07;;;2.90;;
32130;SDS011;18639;50.716;7.086;2023-08-21T13:25:32;5.90;;;3.10;;
32130;SDS011;18639;50.716;7.086;2023-08-21T13:27:57;5.88;;;3.30;;
32130;SDS011;18639;50.716;7.086;2023-08-21T13:30:25;8.60;;;3.47;;
32130;SDS011;18639;50.716;7.086;2023-08-21T13:32:50;5.13;;;2.95;;
32130;SDS011;18639;50.716;7.086;2023-08-21T13:35:16;5.55;;;2.92;;
32130;SDS011;18639;50.716;7.086;2023-08-21T13:37:41;4.75;;;2.80;;
32130;SDS011;18639;50.716;7.086;2023-08-21T13:40:07;5.95;;;2.90;;
32130;SDS011;18639;50.716;7.086;2023-08-21T13:42:38;4.07;;;2.40;;
32130;SDS011;18639;50.716;7.086;2023-08-21T13:45:12;3.80;;;2.60;;
32130;SDS011;18639;50.716;7.086;2023-08-21T13:47:39;5.72;;;2.60;;
32130;SDS011;18639;50.716;7.086;2023-08-21T13:50:06;3.35;;;2.30;;
32130;SDS011;18639;50.716;7.086;2023-08-21T13:52:32;4.30;;;2.38;;
32130;SDS011;18639;50.716;7.086;2023-08-21T13:54:58;3.97;;;2.75;;
32130;SDS011;18639;50.716;7.086;2023-08-21T13:57:24;6.03;;;2.60;;
32130;SDS011;18639;50.716;7.086;2023-08-21T13:59:49;5.90;;;2.95;;
32130;SDS011;18639;50.716;7.086;2023-08-21T14:02:14;7.93;;;2.83;;
32130;SDS011;18639;50.716;7.086;2023-08-21T14:04:40;7.30;;;3.78;;
32130;SDS011;18639;50.716;7.086;2023-08-21T14:07:05;9.82;;;3.30;;
32130;SDS011;18639;50.716;7.086;2023-08-21T14:09:30;5.75;;;3.28;;
32130;SDS011;18639;50.716;7.086;2023-08-21T14:11:55;5.57;;;3.00;;
32130;SDS011;18639;50.716;7.086;2023-08-21T14:14:21;6.25;;;3.17;;
32130;SDS011;18639;50.716;7.086;2023-08-21T14:16:46;7.38;;;3.33;;
32130;SDS011;18639;50.716;7.086;2023-08-21T14:19:11;5.05;;;2.85;;
32130;SDS011;18639;50.716;7.086;2023-08-21T14:21:37;4.05;;;2.28;;
32130;SDS011;18639;50.716;7.086;2023-08-21T14:24:02;3.90;;;2.15;;
32130;SDS011;18639;50.716;7.086;2023-08-21T14:26:27;3.63;;;2.22;;
32130;SDS011;18639;50.716;7.086;2023-08-21T14:28:53;4.18;;;2.00;;
32130;SDS011;18639;50.716;7.086;2023-08-21T14:31:19;5.93;;;2.50;;
32130;SDS011;18639;50.716;7.086;2023-08-21T14:33:45;4.75;;;2.53;;
32130;SDS011;18639;50.716;7.086;2023-08-21T14:36:10;4.10;;;2.00;;
32130;SDS011;18639;50.716;7.086;2023-08-21T14:38:35;5.75;;;3.30;;
32130;SDS011;18639;50.716;7.086;2023-08-21T14:41:00;3.00;;;2.20;;
32130;SDS011;18639;50.716;7.086;2023-08-21T14:43:26;3.67;;;2.30;;
32130;SDS011;18639;50.716;7.086;2023-08-21T14:45:53;3.40;;;2.03;;
32130;SDS011;18639;50.716;7.086;2023-08-21T14:48:18;4.93;;;2.10;;
32130;SDS011;18639;50.716;7.086;2023-08-21T14:50:43;3.50;;;2.10;;
32130;SDS011;18639;50.716;7.086;2023-08-21T14:53:09;4.13;;;2.05;;
32130;SDS011;18639;50.716;7.086;2023-08-21T14:55:34;3.63;;;2.40;;